sensor_id;sensor_type;location;lat;lon;timestamp;P1;P2;P0
73546;PMS7003;61807;48.384;-4.386;2023-01-29T00:01:29;9.00;6.25;4.00
73546;PMS7003;61807;48.384;-4.386;2023-01-29T00:03:55;11.00;9.00;5.00
73546;PMS7003;61807;48.384;-4.386;2023-01-29T00:06:21;9.25;8.75;5.00
73546;PMS7003;61807;48.384;-4.386;2023-01-29T00:08:49;9.50;9.00;6.50
73546;PMS7003;61807;48.384;-4.386;2023-01-29T00:11:15;14.50;9.50;5.25
73546;PMS7003;61807;48.384;-4.386;2023-01-29T00:13:41;14.25;11.00;7.25
73546;PMS7003;61807;48.384;-4.386;2023-01-29T00:16:07;23.50;16.75;10.75
73546;PMS7003;61807;48.384;-4.386;2023-01-29T00:18:37;25.25;24.25;13.00
73546;PMS7003;61807;48.384;-4.386;2023-01-29T00:21:18;17.75;17.00;10.75
73546;PMS7003;61807;48.384;-4.386;2023-01-29T00:23:46;22.25;16.50;11.00
73546;PMS7003;61807;48.384;-4.386;2023-01-29T00:26:12;14.75;13.75;8.50
73546;PMS7003;61807;48.384;-4.386;2023-01-29T00:28:38;39.75;25.50;17.00
73546;PMS7003;61807;48.384;-4.386;2023-01-29T00:31:11;27.00;19.25;12.25
73546;PMS7003;61807;48.384;-4.386;2023-01-29T00:33:38;20.00;14.50;9.50
73546;PMS7003;61807;48.384;-4.386;2023-01-29T00:36:04;17.00;12.75;10.50
73546;PMS7003;61807;48.384;-4.386;2023-01-29T00:38:31;15.75;12.00;8.00
73546;PMS7003;61807;48.384;-4.386;2023-01-29T00:41:04;11.50;9.50;6.00
73546;PMS7003;61807;48.384;-4.386;2023-01-29T00:43:55;16.50;12.50;8.75
73546;PMS7003;61807;48.384;-4.386;2023-01-29T00:46:40;16.00;9.00;7.50
73546;PMS7003;61807;48.384;-4.386;2023-01-29T00:49:06;14.50;11.50;7.25
73546;PMS7003;61807;48.384;-4.386;2023-01-29T00:51:32;14.25;11.50;7.50
73546;PMS7003;61807;48.384;-4.386;2023-01-29T00:53:57;14.25;10.25;7.75
73546;PMS7003;61807;48.384;-4.386;2023-01-29T00:56:26;15.75;13.50;8.75
73546;PMS7003;61807;48.384;-4.386;2023-01-29T00:58:53;13.25;10.75;8.25
73546;PMS7003;61807;48.384;-4.386;2023-01-29T01:01:19;19.25;11.50;8.50
73546;PMS7003;61807;48.384;-4.386;2023-01-29T01:04:05;13.50;12.00;7.25
73546;PMS7003;61807;48.384;-4.386;2023-01-29T01:06:31;16.75;11.75;9.25
73546;PMS7003;61807;48.384;-4.386;2023-01-29T01:08:57;12.75;12.00;8.50
73546;PMS7003;61807;48.384;-4.386;2023-01-29T01:11:41;11.00;8.50;5.25
73546;PMS7003;61807;48.384;-4.386;2023-01-29T01:14:06;10.25;10.25;6.50
73546;PMS7003;61807;48.384;-4.386;2023-01-29T01:16:32;19.00;15.00;8.50
73546;PMS7003;61807;48.384;-4.386;2023-01-29T01:18:57;12.25;10.00;6.75
73546;PMS7003;61807;48.384;-4.386;2023-01-29T01:21:22;24.25;11.00;6.50
73546;PMS7003;61807;48.384;-4.386;2023-01-29T01:23:48;15.75;11.25;5.50
73546;PMS7003;61807;48.384;-4.386;2023-01-29T01:26:16;11.00;11.00;8.00
73546;PMS7003;61807;48.384;-4.386;2023-01-29T01:28:41;12.25;10.25;6.00
73546;PMS7003;61807;48.384;-4.386;2023-01-29T01:31:08;16.25;8.75;5.25
73546;PMS7003;61807;48.384;-4.386;2023-01-29T01:33:34;12.00;10.00;7.75
73546;PMS7003;61807;48.384;-4.386;2023-01-29T01:36:01;13.75;10.00;8.00
73546;PMS7003;61807;48.384;-4.386;2023-01-29T01:38:27;15.50;9.00;6.25
73546;PMS7003;61807;48.384;-4.386;2023-01-29T01:40:52;10.25;9.00;5.50
73546;PMS7003;61807;48.384;-4.386;2023-01-29T01:43:18;16.75;12.00;8.25
73546;PMS7003;61807;48.384;-4.386;2023-01-29T01:45:43;13.50;10.25;8.00
73546;PMS7003;61807;48.384;-4.386;2023-01-29T01:48:11;18.50;12.25;8.50
73546;PMS7003;61807;48.384;-4.386;2023-01-29T01:50:44;15.25;10.25;7.25
73546;PMS7003;61807;48.384;-4.386;2023-01-29T01:53:15;14.00;11.50;6.75
73546;PMS7003;61807;48.384;-4.386;2023-01-29T01:55:49;11.75;10.00;8.25
73546;PMS7003;61807;48.384;-4.386;2023-01-29T01:58:29;13.00;10.50;7.00
73546;PMS7003;61807;48.384;-4.386;2023-01-29T02:00:58;23.25;14.75;9.75
73546;PMS7003;61807;48.384;-4.386;2023-01-29T02:03:24;14.25;11.00;8.00
73546;PMS7003;61807;48.384;-4.386;2023-01-29T02:06:10;15.75;12.25;8.50
73546;PMS7003;61807;48.384;-4.386;2023-01-29T02:08:57;17.00;13.75;8.00
73546;PMS7003;61807;48.384;-4.386;2023-01-29T02:11:47;18.25;11.50;8.25
73546;PMS7003;61807;48.384;-4.386;2023-01-29T02:14:14;17.00;12.00;8.00
73546;PMS7003;61807;48.384;-4.386;2023-01-29T02:16:40;20.50;14.00;8.75
73546;PMS7003;61807;48.384;-4.386;2023-01-29T02:19:06;21.25;16.50;11.00
73546;PMS7003;61807;48.384;-4.386;2023-01-29T02:27:08;16.00;14.50;9.00
73546;PMS7003;61807;48.384;-4.386;2023-01-29T02:29:51;14.25;13.25;9.00
73546;PMS7003;61807;48.384;-4.386;2023-01-29T02:32:34;14.50;11.50;8.25
73546;PMS7003;61807;48.384;-4.386;2023-01-29T02:38:09;12.50;10.75;8.00
73546;PMS7003;61807;48.384;-4.386;2023-01-29T02:43:32;17.00;12.00;9.50
73546;PMS7003;61807;48.384;-4.386;2023-01-29T02:46:14;18.00;16.50;10.00
73546;PMS7003;61807;48.384;-4.386;2023-01-29T02:54:45;15.50;13.00;8.00
73546;PMS7003;61807;48.384;-4.386;2023-01-29T02:57:19;10.50;8.00;5.25
73546;PMS7003;61807;48.384;-4.386;2023-01-29T03:00:02;12.25;10.50;5.50
73546;PMS7003;61807;48.384;-4.386;2023-01-29T03:02:54;12.25;8.00;5.00
73546;PMS7003;61807;48.384;-4.386;2023-01-29T03:05:24;16.25;11.75;7.50
73546;PMS7003;61807;48.384;-4.386;2023-01-29T03:07:59;16.75;11.50;9.00
73546;PMS7003;61807;48.384;-4.386;2023-01-29T03:10:36;16.50;13.25;7.75
73546;PMS7003;61807;48.384;-4.386;2023-01-29T03:15:41;19.00;12.75;9.75
73546;PMS7003;61807;48.384;-4.386;2023-01-29T03:18:13;18.00;13.25;9.75
73546;PMS7003;61807;48.384;-4.386;2023-01-29T03:20:43;22.25;15.50;10.00
73546;PMS7003;61807;48.384;-4.386;2023-01-29T03:23:18;22.50;15.25;9.00
73546;PMS7003;61807;48.384;-4.386;2023-01-29T03:25:51;18.50;13.00;9.50
73546;PMS7003;61807;48.384;-4.386;2023-01-29T03:28:41;17.50;13.75;9.25
73546;PMS7003;61807;48.384;-4.386;2023-01-29T03:31:28;17.00;12.00;8.00
73546;PMS7003;61807;48.384;-4.386;2023-01-29T03:34:16;16.50;12.25;8.00
73546;PMS7003;61807;48.384;-4.386;2023-01-29T03:36:53;16.50;13.00;9.00
73546;PMS7003;61807;48.384;-4.386;2023-01-29T03:39:33;16.00;12.50;8.00
73546;PMS7003;61807;48.384;-4.386;2023-01-29T03:44:51;15.25;13.50;8.00
73546;PMS7003;61807;48.384;-4.386;2023-01-29T03:50:04;14.50;11.25;8.75
73546;PMS7003;61807;48.384;-4.386;2023-01-29T03:55:39;18.25;14.50;9.75
73546;PMS7003;61807;48.384;-4.386;2023-01-29T04:01:21;15.25;12.50;8.00
73546;PMS7003;61807;48.384;-4.386;2023-01-29T04:03:56;14.75;14.50;9.25
73546;PMS7003;61807;48.384;-4.386;2023-01-29T04:06:44;19.50;16.00;9.50
73546;PMS7003;61807;48.384;-4.386;2023-01-29T04:09:15;18.00;13.75;9.00
73546;PMS7003;61807;48.384;-4.386;2023-01-29T04:11:48;24.00;18.00;10.50
73546;PMS7003;61807;48.384;-4.386;2023-01-29T04:14:18;18.75;14.75;8.75
73546;PMS7003;61807;48.384;-4.386;2023-01-29T04:16:46;17.25;12.25;8.50
73546;PMS7003;61807;48.384;-4.386;2023-01-29T04:19:15;18.25;13.50;7.50
73546;PMS7003;61807;48.384;-4.386;2023-01-29T04:21:40;19.00;16.75;9.75
73546;PMS7003;61807;48.384;-4.386;2023-01-29T04:24:08;28.25;19.25;10.00
73546;PMS7003;61807;48.384;-4.386;2023-01-29T04:34:45;19.50;16.75;9.25
73546;PMS7003;61807;48.384;-4.386;2023-01-29T04:37:16;13.75;11.50;9.00
73546;PMS7003;61807;48.384;-4.386;2023-01-29T04:39:53;17.25;15.75;10.25
73546;PMS7003;61807;48.384;-4.386;2023-01-29T04:47:38;17.75;16.50;8.50
73546;PMS7003;61807;48.384;-4.386;2023-01-29T04:50:23;18.25;14.00;9.00
73546;PMS7003;61807;48.384;-4.386;2023-01-29T04:53:03;20.75;16.00;11.00
73546;PMS7003;61807;48.384;-4.386;2023-01-29T05:00:42;16.25;15.50;9.50
73546;PMS7003;61807;48.384;-4.386;2023-01-29T05:03:11;17.00;15.00;11.00
73546;PMS7003;61807;48.384;-4.386;2023-01-29T05:05:38;22.00;15.75;11.50
73546;PMS7003;61807;48.384;-4.386;2023-01-29T05:08:06;17.75;15.50;8.00
73546;PMS7003;61807;48.384;-4.386;2023-01-29T05:10:34;24.25;18.75;11.50
73546;PMS7003;61807;48.384;-4.386;2023-01-29T05:13:01;21.50;15.50;10.00
73546;PMS7003;61807;48.384;-4.386;2023-01-29T05:15:32;23.75;16.00;9.50
73546;PMS7003;61807;48.384;-4.386;2023-01-29T05:18:02;21.00;18.00;10.50
73546;PMS7003;61807;48.384;-4.386;2023-01-29T05:20:33;19.25;15.50;10.00
73546;PMS7003;61807;48.384;-4.386;2023-01-29T05:23:03;23.50;15.75;10.00
73546;PMS7003;61807;48.384;-4.386;2023-01-29T05:25:32;23.00;15.75;11.50
73546;PMS7003;61807;48.384;-4.386;2023-01-29T05:27:59;20.75;14.75;10.50
73546;PMS7003;61807;48.384;-4.386;2023-01-29T05:30:43;21.00;16.50;10.25
73546;PMS7003;61807;48.384;-4.386;2023-01-29T05:33:15;24.75;16.75;9.50
73546;PMS7003;61807;48.384;-4.386;2023-01-29T05:35:42;24.50;16.00;9.00
73546;PMS7003;61807;48.384;-4.386;2023-01-29T05:38:07;21.25;15.25;9.50
73546;PMS7003;61807;48.384;-4.386;2023-01-29T05:40:33;18.00;15.00;10.00
73546;PMS7003;61807;48.384;-4.386;2023-01-29T05:42:58;21.00;16.00;8.25
73546;PMS7003;61807;48.384;-4.386;2023-01-29T05:45:24;25.00;15.00;9.50
73546;PMS7003;61807;48.384;-4.386;2023-01-29T05:47:50;17.00;14.50;9.75
73546;PMS7003;61807;48.384;-4.386;2023-01-29T05:50:20;18.50;13.25;9.00
73546;PMS7003;61807;48.384;-4.386;2023-01-29T05:52:45;20.00;16.75;9.25
73546;PMS7003;61807;48.384;-4.386;2023-01-29T05:55:10;21.00;15.50;9.00
73546;PMS7003;61807;48.384;-4.386;2023-01-29T05:57:36;16.75;14.25;8.75
73546;PMS7003;61807;48.384;-4.386;2023-01-29T06:00:02;23.75;17.25;11.50
73546;PMS7003;61807;48.384;-4.386;2023-01-29T06:02:29;22.25;20.75;12.25
73546;PMS7003;61807;48.384;-4.386;2023-01-29T06:04:55;21.25;14.75;9.75
73546;PMS7003;61807;48.384;-4.386;2023-01-29T06:07:21;21.25;20.25;13.25
73546;PMS7003;61807;48.384;-4.386;2023-01-29T06:09:46;21.75;16.00;10.00
73546;PMS7003;61807;48.384;-4.386;2023-01-29T06:12:12;23.00;20.00;11.50
73546;PMS7003;61807;48.384;-4.386;2023-01-29T06:14:37;18.25;14.25;9.50
73546;PMS7003;61807;48.384;-4.386;2023-01-29T06:17:03;21.50;18.25;12.50
73546;PMS7003;61807;48.384;-4.386;2023-01-29T06:19:28;23.00;16.25;9.75
73546;PMS7003;61807;48.384;-4.386;2023-01-29T06:21:54;27.50;20.25;12.75
73546;PMS7003;61807;48.384;-4.386;2023-01-29T06:24:19;18.00;17.00;9.50
73546;PMS7003;61807;48.384;-4.386;2023-01-29T06:26:45;26.75;19.50;9.25
73546;PMS7003;61807;48.384;-4.386;2023-01-29T06:29:10;19.00;15.75;10.00
73546;PMS7003;61807;48.384;-4.386;2023-01-29T06:31:35;19.00;16.75;9.00
73546;PMS7003;61807;48.384;-4.386;2023-01-29T06:34:01;24.75;19.25;9.00
73546;PMS7003;61807;48.384;-4.386;2023-01-29T06:36:27;24.50;18.75;9.25
73546;PMS7003;61807;48.384;-4.386;2023-01-29T06:38:53;19.50;14.75;9.75
73546;PMS7003;61807;48.384;-4.386;2023-01-29T06:41:18;24.25;18.50;10.00
73546;PMS7003;61807;48.384;-4.386;2023-01-29T06:43:49;19.75;15.75;10.75
73546;PMS7003;61807;48.384;-4.386;2023-01-29T06:46:15;25.75;20.00;10.00
73546;PMS7003;61807;48.384;-4.386;2023-01-29T06:48:41;28.50;18.50;10.75
73546;PMS7003;61807;48.384;-4.386;2023-01-29T06:51:07;17.50;15.00;10.00
73546;PMS7003;61807;48.384;-4.386;2023-01-29T06:53:34;24.25;17.75;10.50
73546;PMS7003;61807;48.384;-4.386;2023-01-29T06:56:00;22.25;14.00;9.00
73546;PMS7003;61807;48.384;-4.386;2023-01-29T06:58:26;20.75;16.50;9.50
73546;PMS7003;61807;48.384;-4.386;2023-01-29T07:00:52;20.25;15.00;8.50
73546;PMS7003;61807;48.384;-4.386;2023-01-29T07:03:17;24.00;17.00;10.75
73546;PMS7003;61807;48.384;-4.386;2023-01-29T07:05:48;17.75;13.75;9.25
73546;PMS7003;61807;48.384;-4.386;2023-01-29T07:08:15;24.75;18.50;9.25
73546;PMS7003;61807;48.384;-4.386;2023-01-29T07:10:41;22.00;15.25;9.00
73546;PMS7003;61807;48.384;-4.386;2023-01-29T07:13:06;23.25;15.25;9.00
73546;PMS7003;61807;48.384;-4.386;2023-01-29T07:15:32;16.75;15.25;10.00
73546;PMS7003;61807;48.384;-4.386;2023-01-29T07:18:01;25.50;15.75;9.00
73546;PMS7003;61807;48.384;-4.386;2023-01-29T07:20:36;22.50;17.00;9.50
73546;PMS7003;61807;48.384;-4.386;2023-01-29T07:23:05;20.25;14.25;9.50
73546;PMS7003;61807;48.384;-4.386;2023-01-29T07:25:30;21.00;16.25;12.50
73546;PMS7003;61807;48.384;-4.386;2023-01-29T07:28:01;20.25;17.00;10.00
73546;PMS7003;61807;48.384;-4.386;2023-01-29T07:30:26;21.25;17.25;10.50
73546;PMS7003;61807;48.384;-4.386;2023-01-29T07:32:52;22.25;15.75;8.50
73546;PMS7003;61807;48.384;-4.386;2023-01-29T07:35:17;18.75;15.75;8.50
73546;PMS7003;61807;48.384;-4.386;2023-01-29T07:37:42;19.75;16.50;10.50
73546;PMS7003;61807;48.384;-4.386;2023-01-29T07:40:08;15.25;14.75;9.50
73546;PMS7003;61807;48.384;-4.386;2023-01-29T07:42:36;19.50;19.50;12.50
73546;PMS7003;61807;48.384;-4.386;2023-01-29T07:45:03;22.25;16.50;10.50
73546;PMS7003;61807;48.384;-4.386;2023-01-29T07:47:29;19.25;15.00;11.75
73546;PMS7003;61807;48.384;-4.386;2023-01-29T07:49:55;22.50;19.25;11.50
73546;PMS7003;61807;48.384;-4.386;2023-01-29T07:52:20;23.25;18.75;12.25
73546;PMS7003;61807;48.384;-4.386;2023-01-29T07:54:45;22.50;17.50;11.75
73546;PMS7003;61807;48.384;-4.386;2023-01-29T07:57:11;21.25;16.75;10.75
73546;PMS7003;61807;48.384;-4.386;2023-01-29T07:59:36;22.50;15.00;10.00
73546;PMS7003;61807;48.384;-4.386;2023-01-29T08:02:01;22.50;16.00;9.75
73546;PMS7003;61807;48.384;-4.386;2023-01-29T08:04:27;17.25;16.00;10.00
73546;PMS7003;61807;48.384;-4.386;2023-01-29T08:06:52;20.25;15.75;10.00
73546;PMS7003;61807;48.384;-4.386;2023-01-29T08:09:18;22.50;15.75;11.00
73546;PMS7003;61807;48.384;-4.386;2023-01-29T08:11:43;21.00;16.75;9.75
73546;PMS7003;61807;48.384;-4.386;2023-01-29T08:14:09;17.25;14.75;10.00
73546;PMS7003;61807;48.384;-4.386;2023-01-29T08:16:34;27.50;16.75;10.00
73546;PMS7003;61807;48.384;-4.386;2023-01-29T08:19:02;27.25;20.75;12.00
73546;PMS7003;61807;48.384;-4.386;2023-01-29T08:21:28;24.75;17.00;10.25
73546;PMS7003;61807;48.384;-4.386;2023-01-29T08:23:53;26.75;18.50;11.00
73546;PMS7003;61807;48.384;-4.386;2023-01-29T08:26:19;22.50;17.25;10.75
73546;PMS7003;61807;48.384;-4.386;2023-01-29T08:28:44;24.25;18.50;10.25
73546;PMS7003;61807;48.384;-4.386;2023-01-29T08:31:13;31.00;20.00;11.00
73546;PMS7003;61807;48.384;-4.386;2023-01-29T08:33:40;28.25;22.50;10.00
73546;PMS7003;61807;48.384;-4.386;2023-01-29T08:36:06;28.50;20.25;11.25
73546;PMS7003;61807;48.384;-4.386;2023-01-29T08:38:32;21.50;17.25;11.00
73546;PMS7003;61807;48.384;-4.386;2023-01-29T08:40:57;29.25;17.75;11.00
73546;PMS7003;61807;48.384;-4.386;2023-01-29T08:43:23;26.00;19.00;12.00
73546;PMS7003;61807;48.384;-4.386;2023-01-29T08:45:48;23.25;15.75;11.00
73546;PMS7003;61807;48.384;-4.386;2023-01-29T08:48:13;34.00;24.75;12.00
73546;PMS7003;61807;48.384;-4.386;2023-01-29T08:50:39;24.00;16.25;9.50
73546;PMS7003;61807;48.384;-4.386;2023-01-29T08:53:05;18.50;18.00;10.75
73546;PMS7003;61807;48.384;-4.386;2023-01-29T08:55:32;20.50;18.00;10.50
73546;PMS7003;61807;48.384;-4.386;2023-01-29T08:58:03;23.75;22.00;14.50
73546;PMS7003;61807;48.384;-4.386;2023-01-29T09:00:31;22.75;18.50;11.50
73546;PMS7003;61807;48.384;-4.386;2023-01-29T09:02:57;24.50;19.75;12.00
73546;PMS7003;61807;48.384;-4.386;2023-01-29T09:05:23;28.00;22.50;14.75
73546;PMS7003;61807;48.384;-4.386;2023-01-29T09:07:49;25.00;17.50;10.00
73546;PMS7003;61807;48.384;-4.386;2023-01-29T09:10:15;27.00;18.50;12.00
73546;PMS7003;61807;48.384;-4.386;2023-01-29T09:12:40;19.75;19.00;11.50
73546;PMS7003;61807;48.384;-4.386;2023-01-29T09:15:06;25.75;18.00;12.00
73546;PMS7003;61807;48.384;-4.386;2023-01-29T09:17:32;22.50;18.25;11.50
73546;PMS7003;61807;48.384;-4.386;2023-01-29T09:19:57;21.75;16.25;9.00
73546;PMS7003;61807;48.384;-4.386;2023-01-29T09:22:23;19.25;17.75;13.00
73546;PMS7003;61807;48.384;-4.386;2023-01-29T09:24:48;28.25;22.00;13.50
73546;PMS7003;61807;48.384;-4.386;2023-01-29T09:27:14;27.00;18.25;10.00
73546;PMS7003;61807;48.384;-4.386;2023-01-29T09:29:39;23.25;17.50;11.25
73546;PMS7003;61807;48.384;-4.386;2023-01-29T09:32:05;20.00;17.75;11.25
73546;PMS7003;61807;48.384;-4.386;2023-01-29T09:34:30;24.25;18.50;10.00
73546;PMS7003;61807;48.384;-4.386;2023-01-29T09:36:56;20.00;18.00;11.00
73546;PMS7003;61807;48.384;-4.386;2023-01-29T09:39:21;21.50;16.00;10.00
73546;PMS7003;61807;48.384;-4.386;2023-01-29T09:41:51;20.00;15.75;9.75
73546;PMS7003;61807;48.384;-4.386;2023-01-29T09:44:39;22.50;19.00;12.00
73546;PMS7003;61807;48.384;-4.386;2023-01-29T09:47:18;15.25;15.25;10.00
73546;PMS7003;61807;48.384;-4.386;2023-01-29T09:49:48;18.00;16.00;11.00
73546;PMS7003;61807;48.384;-4.386;2023-01-29T09:55:13;21.75;19.25;12.25
73546;PMS7003;61807;48.384;-4.386;2023-01-29T10:09:02;19.25;16.25;11.00
73546;PMS7003;61807;48.384;-4.386;2023-01-29T10:12:15;19.00;17.50;11.75
73546;PMS7003;61807;48.384;-4.386;2023-01-29T10:23:49;23.25;17.50;11.00
73546;PMS7003;61807;48.384;-4.386;2023-01-29T10:26:29;27.25;19.25;11.25
73546;PMS7003;61807;48.384;-4.386;2023-01-29T10:28:58;28.75;19.00;11.25
73546;PMS7003;61807;48.384;-4.386;2023-01-29T10:31:30;24.00;17.50;11.25
73546;PMS7003;61807;48.384;-4.386;2023-01-29T10:33:59;22.25;16.50;12.00
73546;PMS7003;61807;48.384;-4.386;2023-01-29T10:36:39;19.00;15.75;11.00
73546;PMS7003;61807;48.384;-4.386;2023-01-29T10:39:28;22.75;19.75;14.00
73546;PMS7003;61807;48.384;-4.386;2023-01-29T10:50:27;27.25;20.50;12.00
73546;PMS7003;61807;48.384;-4.386;2023-01-29T10:58:37;23.75;21.75;14.00
73546;PMS7003;61807;48.384;-4.386;2023-01-29T11:01:08;22.25;20.25;12.25
73546;PMS7003;61807;48.384;-4.386;2023-01-29T11:03:34;18.00;15.00;12.00
